summaryrefslogtreecommitdiff
AgeCommit message (Expand)AuthorFilesLines
2001-06-08Merge SRC633: 09.06.01 - 01:11:13Rüdiger Timm1-5/+6
2001-06-08Merge SRC633: 09.06.01 - 01:09:09Rüdiger Timm1-85/+181
2001-06-08Merge SRC633: 09.06.01 - 01:06:33Vladimir Glazounov1-81/+82
2001-06-08Merge SRC633: 09.06.01 - 01:04:31Vladimir Glazounov1-40/+41
2001-06-08Merge SRC633: 09.06.01 - 00:30:41Vladimir Glazounov1-14/+37
2001-06-08Merge SRC633: 09.06.01 - 00:28:39Vladimir Glazounov1-12/+16
2001-06-08Merge SRC633: 09.06.01 - 00:26:36Vladimir Glazounov1-3/+26
2001-06-08Merge SRC633: 09.06.01 - 00:24:35Vladimir Glazounov1-5/+9
2001-06-08Merge SRC633: 09.06.01 - 00:24:48Kurt Zenker1-3/+7
2001-06-08Merge SRC633: 06/09/01 - 00:23:08Kurt Zenker1-3/+4
2001-06-08Merge SRC633: 09.06.01 - 00:22:50Vladimir Glazounov1-7/+144
2001-06-08Merge SRC633: 06/09/01 - 00:21:51Kurt Zenker1-7/+8
2001-06-08Merge SRC633: 09.06.01 - 00:22:44Kurt Zenker1-77/+81
2001-06-08Merge SRC633: 06/09/01 - 00:21:14Kurt Zenker1-2/+3
2001-06-08Merge SRC633: 06/09/01 - 00:19:12Kurt Zenker1-4/+5
2001-06-08Merge SRC633: 06/09/01 - 00:19:15Kurt Zenker1-2/+3
2001-06-08#87217# new way of setting db fields in correspondence templatesTom Verbeek7-183/+473
2001-06-08#86096# corrected setting the FontSlantFrank Schönheit1-3/+6
2001-06-08#86096# corrected extracting sal_Int16/sal_Int32 valuesFrank Schönheit1-4/+11
2001-06-08#87576# don't let unix wait for subdirectories made for windows only (here: e...Rüdiger Timm1-1/+1
2001-06-08#65293# linux type conversion problemFrank Schönheit1-6/+7
2001-06-08#65293# linux type conversion problemFrank Schönheit1-4/+6
2001-06-07#87754# do not use the webtop pluginPhilipp Lohmann1-17/+20
2001-06-07#87754# dont use the webtop pluginPhilipp Lohmann1-3/+5
2001-06-06#87606# ConverttoUrl Routine modifiedBehrend Cornelius1-1/+0
2001-06-06#87606# Some routines addedBehrend Cornelius5-23/+66
2001-06-06#86850# correct size for previewTom Verbeek2-3/+3
2001-06-06#86837# +PROPERTY_IMAGEALIGNFrank Schönheit4-8/+29
2001-06-06#86837# +HID_PROP_IMAGE_ALIGNFrank Schönheit1-2/+6
2001-06-06#86837# +RID_STR_ENUM_SIDE_ALIGNFrank Schönheit2-5/+17
2001-06-06#87606# saving document routine improvedBehrend Cornelius5-67/+106
2001-06-06changes in the ConstAsciiString for better runtime performanceFrank Schönheit1-4/+7
2001-06-06changed the ConstAsciiString implementation so that an OUString is shared and...Frank Schönheit1-14/+41
2001-06-06#86096# ChangeFontProperty: added support for Relief, EmphasisMark, TextLineC...Frank Schönheit1-40/+127
2001-06-06#86096# don't disable underline color anymoreFrank Schönheit1-5/+5
2001-06-06#86096# +FontRelief/FontEmphasisMark/TextLineColorFrank Schönheit1-2/+8
2001-06-06#86096# +implGetInt32FontProperty / +implInvalidateItemFrank Schönheit1-2/+13
2001-06-05Merge SRC633: 06.06.01 - 00:03:33Rüdiger Timm1-5/+5
2001-06-05#87606# several changes concerning the user interfaceBehrend Cornelius8-342/+549
2001-06-05#87576# changed for gccRüdiger Timm1-3/+3
2001-06-05#87099# remember the exception specificationMartin Gallwey1-2/+3
2001-06-01Merge SRC633: 01.06.01 - 21:40:58Kurt Zenker1-3/+3
2001-05-31#87149# set the delegator after adding as aggregate property change listenerFrank Schönheit1-7/+7
2001-05-31#87149# forward the _bSetDelegator ctor param to the base classFrank Schönheit2-7/+9
2001-05-31#87149# allow to set the aggregates delegator later (not in the ctor, but by ...Frank Schönheit1-17/+34
2001-05-31#87149# changed the property listening at the aggregateFrank Schönheit2-23/+98
2001-05-31#87149# DBG_CTOR/-DTORFrank Schönheit1-2/+7
2001-05-31#87672# assertions preventedOliver Specht1-3/+6
2001-05-31#87099# Make sure we compress all STORED streams that are supposed to be encr...Martin Gallwey1-5/+13
2001-05-31#87099# Added ThreadedBuffer and OutputThreadMartin Gallwey1-6/+8